sensor_id;sensor_type;location;lat;lon;timestamp;P1;durP1;ratioP1;P2;durP2;ratioP2
8462;SDS011;4268;52.506;13.462;2023-12-07T00:02:02;21.57;;;19.37;;
8462;SDS011;4268;52.506;13.462;2023-12-07T00:04:28;19.27;;;17.37;;
8462;SDS011;4268;52.506;13.462;2023-12-07T00:06:53;18.33;;;16.63;;
8462;SDS011;4268;52.506;13.462;2023-12-07T00:09:19;19.40;;;17.50;;
8462;SDS011;4268;52.506;13.462;2023-12-07T00:11:44;20.00;;;18.03;;
8462;SDS011;4268;52.506;13.462;2023-12-07T00:14:10;20.57;;;18.57;;
8462;SDS011;4268;52.506;13.462;2023-12-07T00:16:36;19.57;;;17.70;;
8462;SDS011;4268;52.506;13.462;2023-12-07T00:19:01;19.60;;;17.77;;
8462;SDS011;4268;52.506;13.462;2023-12-07T00:21:27;20.87;;;18.87;;
8462;SDS011;4268;52.506;13.462;2023-12-07T00:23:52;20.57;;;18.57;;
8462;SDS011;4268;52.506;13.462;2023-12-07T00:26:18;21.17;;;19.17;;
8462;SDS011;4268;52.506;13.462;2023-12-07T00:28:43;20.80;;;18.90;;
8462;SDS011;4268;52.506;13.462;2023-12-07T00:31:09;21.00;;;18.97;;
8462;SDS011;4268;52.506;13.462;2023-12-07T00:33:35;20.73;;;18.80;;
8462;SDS011;4268;52.506;13.462;2023-12-07T00:36:01;20.70;;;18.80;;
8462;SDS011;4268;52.506;13.462;2023-12-07T00:38:26;21.90;;;19.80;;
8462;SDS011;4268;52.506;13.462;2023-12-07T00:40:52;22.17;;;19.97;;
8462;SDS011;4268;52.506;13.462;2023-12-07T00:43:17;22.70;;;20.50;;
8462;SDS011;4268;52.506;13.462;2023-12-07T00:45:43;23.83;;;21.47;;
8462;SDS011;4268;52.506;13.462;2023-12-07T00:48:08;25.07;;;22.67;;
8462;SDS011;4268;52.506;13.462;2023-12-07T00:50:34;24.07;;;21.77;;
8462;SDS011;4268;52.506;13.462;2023-12-07T00:53:02;23.67;;;21.47;;
8462;SDS011;4268;52.506;13.462;2023-12-07T00:55:28;25.00;;;22.60;;
8462;SDS011;4268;52.506;13.462;2023-12-07T00:57:57;25.53;;;23.13;;
8462;SDS011;4268;52.506;13.462;2023-12-07T01:00:26;26.67;;;24.17;;
8462;SDS011;4268;52.506;13.462;2023-12-07T01:02:52;22.83;;;20.73;;
8462;SDS011;4268;52.506;13.462;2023-12-07T01:05:17;24.40;;;22.20;;
8462;SDS011;4268;52.506;13.462;2023-12-07T01:07:43;23.53;;;21.33;;
8462;SDS011;4268;52.506;13.462;2023-12-07T01:10:08;23.40;;;21.10;;
8462;SDS011;4268;52.506;13.462;2023-12-07T01:12:34;23.13;;;20.83;;
8462;SDS011;4268;52.506;13.462;2023-12-07T01:15:00;22.13;;;20.03;;
8462;SDS011;4268;52.506;13.462;2023-12-07T01:17:26;22.80;;;20.70;;
8462;SDS011;4268;52.506;13.462;2023-12-07T01:19:51;22.77;;;20.57;;
8462;SDS011;4268;52.506;13.462;2023-12-07T01:22:17;23.80;;;21.60;;
8462;SDS011;4268;52.506;13.462;2023-12-07T01:24:42;23.37;;;21.07;;
8462;SDS011;4268;52.506;13.462;2023-12-07T01:27:09;22.90;;;20.77;;
8462;SDS011;4268;52.506;13.462;2023-12-07T01:29:34;22.77;;;20.63;;
8462;SDS011;4268;52.506;13.462;2023-12-07T01:32:00;23.50;;;21.30;;
8462;SDS011;4268;52.506;13.462;2023-12-07T01:34:25;23.80;;;21.30;;
8462;SDS011;4268;52.506;13.462;2023-12-07T01:36:51;23.90;;;21.57;;
8462;SDS011;4268;52.506;13.462;2023-12-07T01:39:16;23.77;;;21.53;;
8462;SDS011;4268;52.506;13.462;2023-12-07T01:41:42;23.43;;;21.13;;
8462;SDS011;4268;52.506;13.462;2023-12-07T01:44:08;22.07;;;19.97;;
8462;SDS011;4268;52.506;13.462;2023-12-07T01:46:34;22.00;;;20.00;;
8462;SDS011;4268;52.506;13.462;2023-12-07T01:49:00;23.03;;;20.83;;
8462;SDS011;4268;52.506;13.462;2023-12-07T01:51:26;22.23;;;20.03;;
8462;SDS011;4268;52.506;13.462;2023-12-07T01:53:51;22.53;;;20.43;;
8462;SDS011;4268;52.506;13.462;2023-12-07T01:56:17;21.83;;;19.73;;
8462;SDS011;4268;52.506;13.462;2023-12-07T01:58:43;23.10;;;21.00;;
8462;SDS011;4268;52.506;13.462;2023-12-07T02:01:09;22.90;;;20.73;;
8462;SDS011;4268;52.506;13.462;2023-12-07T02:03:37;24.37;;;22.07;;
8462;SDS011;4268;52.506;13.462;2023-12-07T02:06:04;23.27;;;21.20;;
8462;SDS011;4268;52.506;13.462;2023-12-07T02:08:30;23.93;;;21.83;;
8462;SDS011;4268;52.506;13.462;2023-12-07T02:10:56;22.70;;;20.70;;
8462;SDS011;4268;52.506;13.462;2023-12-07T02:13:21;24.13;;;21.93;;
8462;SDS011;4268;52.506;13.462;2023-12-07T02:15:47;25.27;;;22.87;;
8462;SDS011;4268;52.506;13.462;2023-12-07T02:18:21;23.77;;;21.67;;
8462;SDS011;4268;52.506;13.462;2023-12-07T02:23:44;22.63;;;20.53;;
8462;SDS011;4268;52.506;13.462;2023-12-07T02:26:16;23.17;;;21.07;;
8462;SDS011;4268;52.506;13.462;2023-12-07T02:28:45;23.07;;;20.97;;
8462;SDS011;4268;52.506;13.462;2023-12-07T02:31:10;23.13;;;21.07;;
8462;SDS011;4268;52.506;13.462;2023-12-07T02:33:36;22.93;;;20.83;;
8462;SDS011;4268;52.506;13.462;2023-12-07T02:36:01;22.93;;;20.93;;
8462;SDS011;4268;52.506;13.462;2023-12-07T02:38:27;23.17;;;20.97;;
8462;SDS011;4268;52.506;13.462;2023-12-07T02:40:54;21.63;;;19.70;;
8462;SDS011;4268;52.506;13.462;2023-12-07T02:43:20;22.57;;;20.47;;
8462;SDS011;4268;52.506;13.462;2023-12-07T02:45:47;21.43;;;19.43;;
8462;SDS011;4268;52.506;13.462;2023-12-07T02:48:13;22.10;;;20.07;;
8462;SDS011;4268;52.506;13.462;2023-12-07T02:50:39;23.00;;;20.90;;
8462;SDS011;4268;52.506;13.462;2023-12-07T02:53:05;20.83;;;18.93;;
8462;SDS011;4268;52.506;13.462;2023-12-07T02:55:30;21.00;;;19.00;;
8462;SDS011;4268;52.506;13.462;2023-12-07T02:57:56;21.47;;;19.53;;
8462;SDS011;4268;52.506;13.462;2023-12-07T03:00:21;21.07;;;19.13;;
8462;SDS011;4268;52.506;13.462;2023-12-07T03:02:47;20.83;;;18.83;;
8462;SDS011;4268;52.506;13.462;2023-12-07T03:05:13;19.47;;;17.57;;
8462;SDS011;4268;52.506;13.462;2023-12-07T03:07:38;21.07;;;19.07;;
8462;SDS011;4268;52.506;13.462;2023-12-07T03:10:04;21.13;;;19.13;;
8462;SDS011;4268;52.506;13.462;2023-12-07T03:12:30;20.27;;;18.37;;
8462;SDS011;4268;52.506;13.462;2023-12-07T03:14:56;19.83;;;17.93;;
8462;SDS011;4268;52.506;13.462;2023-12-07T03:17:21;20.33;;;18.23;;
8462;SDS011;4268;52.506;13.462;2023-12-07T03:19:47;19.87;;;17.87;;
8462;SDS011;4268;52.506;13.462;2023-12-07T03:22:12;18.93;;;17.13;;
8462;SDS011;4268;52.506;13.462;2023-12-07T03:24:38;19.40;;;17.43;;
8462;SDS011;4268;52.506;13.462;2023-12-07T03:27:05;19.50;;;17.60;;
8462;SDS011;4268;52.506;13.462;2023-12-07T03:29:31;19.40;;;17.50;;
8462;SDS011;4268;52.506;13.462;2023-12-07T03:31:57;19.20;;;17.30;;
8462;SDS011;4268;52.506;13.462;2023-12-07T03:34:23;19.83;;;17.90;;
8462;SDS011;4268;52.506;13.462;2023-12-07T03:36:49;19.90;;;18.00;;
8462;SDS011;4268;52.506;13.462;2023-12-07T03:39:15;19.83;;;17.93;;
8462;SDS011;4268;52.506;13.462;2023-12-07T03:41:43;19.27;;;17.40;;
8462;SDS011;4268;52.506;13.462;2023-12-07T03:44:09;20.10;;;18.10;;
8462;SDS011;4268;52.506;13.462;2023-12-07T03:46:34;20.57;;;18.57;;
8462;SDS011;4268;52.506;13.462;2023-12-07T03:49:00;19.93;;;18.03;;
8462;SDS011;4268;52.506;13.462;2023-12-07T03:51:26;20.03;;;18.13;;
8462;SDS011;4268;52.506;13.462;2023-12-07T03:53:52;20.50;;;18.50;;
8462;SDS011;4268;52.506;13.462;2023-12-07T03:56:25;20.03;;;18.13;;
8462;SDS011;4268;52.506;13.462;2023-12-07T03:58:52;20.37;;;18.30;;
8462;SDS011;4268;52.506;13.462;2023-12-07T04:01:17;20.20;;;18.20;;
8462;SDS011;4268;52.506;13.462;2023-12-07T04:03:46;20.30;;;18.30;;
8462;SDS011;4268;52.506;13.462;2023-12-07T04:06:12;20.40;;;18.40;;
8462;SDS011;4268;52.506;13.462;2023-12-07T04:08:37;19.97;;;17.97;;
8462;SDS011;4268;52.506;13.462;2023-12-07T04:11:03;20.47;;;18.37;;
8462;SDS011;4268;52.506;13.462;2023-12-07T04:13:28;20.03;;;18.03;;
8462;SDS011;4268;52.506;13.462;2023-12-07T04:15:54;21.53;;;19.30;;
8462;SDS011;4268;52.506;13.462;2023-12-07T04:18:19;21.50;;;19.30;;
8462;SDS011;4268;52.506;13.462;2023-12-07T04:20:45;21.10;;;19.00;;
8462;SDS011;4268;52.506;13.462;2023-12-07T04:23:10;21.90;;;19.60;;
8462;SDS011;4268;52.506;13.462;2023-12-07T04:25:36;20.93;;;18.73;;
8462;SDS011;4268;52.506;13.462;2023-12-07T04:28:01;20.97;;;18.87;;
8462;SDS011;4268;52.506;13.462;2023-12-07T04:30:27;21.43;;;19.23;;
8462;SDS011;4268;52.506;13.462;2023-12-07T04:32:52;21.03;;;18.93;;
8462;SDS011;4268;52.506;13.462;2023-12-07T04:35:18;20.70;;;18.50;;
8462;SDS011;4268;52.506;13.462;2023-12-07T04:37:43;20.83;;;18.73;;
8462;SDS011;4268;52.506;13.462;2023-12-07T04:40:09;21.50;;;19.23;;
8462;SDS011;4268;52.506;13.462;2023-12-07T04:42:35;21.87;;;19.50;;
8462;SDS011;4268;52.506;13.462;2023-12-07T04:45:01;20.37;;;18.27;;
8462;SDS011;4268;52.506;13.462;2023-12-07T04:47:27;23.30;;;20.43;;
8462;SDS011;4268;52.506;13.462;2023-12-07T04:49:52;21.70;;;19.40;;
8462;SDS011;4268;52.506;13.462;2023-12-07T04:52:18;22.40;;;20.00;;
8462;SDS011;4268;52.506;13.462;2023-12-07T04:54:44;22.73;;;19.77;;
8462;SDS011;4268;52.506;13.462;2023-12-07T04:57:09;22.87;;;20.37;;
8462;SDS011;4268;52.506;13.462;2023-12-07T04:59:35;22.53;;;19.33;;
8462;SDS011;4268;52.506;13.462;2023-12-07T05:02:01;22.13;;;19.73;;
8462;SDS011;4268;52.506;13.462;2023-12-07T05:04:27;22.83;;;20.20;;
8462;SDS011;4268;52.506;13.462;2023-12-07T05:06:52;23.07;;;20.57;;
8462;SDS011;4268;52.506;13.462;2023-12-07T05:09:18;22.23;;;19.83;;
8462;SDS011;4268;52.506;13.462;2023-12-07T05:11:43;22.60;;;19.70;;
8462;SDS011;4268;52.506;13.462;2023-12-07T05:14:10;22.83;;;20.17;;
8462;SDS011;4268;52.506;13.462;2023-12-07T05:16:36;21.80;;;19.50;;
8462;SDS011;4268;52.506;13.462;2023-12-07T05:19:01;23.83;;;20.37;;
8462;SDS011;4268;52.506;13.462;2023-12-07T05:21:27;23.13;;;20.43;;
8462;SDS011;4268;52.506;13.462;2023-12-07T05:23:53;22.00;;;19.00;;
8462;SDS011;4268;52.506;13.462;2023-12-07T05:26:18;21.23;;;18.87;;
8462;SDS011;4268;52.506;13.462;2023-12-07T05:28:44;22.23;;;19.47;;
8462;SDS011;4268;52.506;13.462;2023-12-07T05:31:15;22.77;;;19.53;;
8462;SDS011;4268;52.506;13.462;2023-12-07T05:33:41;23.30;;;20.07;;
8462;SDS011;4268;52.506;13.462;2023-12-07T05:36:07;21.50;;;18.87;;
8462;SDS011;4268;52.506;13.462;2023-12-07T05:38:33;23.77;;;20.40;;
8462;SDS011;4268;52.506;13.462;2023-12-07T05:40:58;24.40;;;19.90;;
8462;SDS011;4268;52.506;13.462;2023-12-07T05:43:24;22.83;;;19.17;;
8462;SDS011;4268;52.506;13.462;2023-12-07T05:45:49;23.37;;;20.63;;
8462;SDS011;4268;52.506;13.462;2023-12-07T05:48:15;21.53;;;19.23;;
8462;SDS011;4268;52.506;13.462;2023-12-07T05:50:40;24.03;;;19.97;;
8462;SDS011;4268;52.506;13.462;2023-12-07T05:53:06;23.87;;;20.47;;
8462;SDS011;4268;52.506;13.462;2023-12-07T05:55:32;21.80;;;19.23;;
8462;SDS011;4268;52.506;13.462;2023-12-07T05:57:58;22.03;;;19.10;;
8462;SDS011;4268;52.506;13.462;2023-12-07T06:00:23;22.27;;;19.23;;
8462;SDS011;4268;52.506;13.462;2023-12-07T06:02:49;22.57;;;20.00;;
8462;SDS011;4268;52.506;13.462;2023-12-07T06:05:14;21.20;;;18.50;;
8462;SDS011;4268;52.506;13.462;2023-12-07T06:07:40;23.07;;;19.40;;
8462;SDS011;4268;52.506;13.462;2023-12-07T06:10:06;22.87;;;19.23;;
8462;SDS011;4268;52.506;13.462;2023-12-07T06:12:32;22.40;;;19.00;;
8462;SDS011;4268;52.506;13.462;2023-12-07T06:14:58;21.93;;;18.77;;
8462;SDS011;4268;52.506;13.462;2023-12-07T06:17:23;20.80;;;18.00;;
8462;SDS011;4268;52.506;13.462;2023-12-07T06:19:49;22.40;;;18.93;;
8462;SDS011;4268;52.506;13.462;2023-12-07T06:22:14;23.23;;;19.80;;
8462;SDS011;4268;52.506;13.462;2023-12-07T06:24:40;22.60;;;19.43;;
8462;SDS011;4268;52.506;13.462;2023-12-07T06:27:05;24.40;;;19.67;;
8462;SDS011;4268;52.506;13.462;2023-12-07T06:29:31;23.20;;;19.90;;
8462;SDS011;4268;52.506;13.462;2023-12-07T06:31:57;21.50;;;19.20;;
8462;SDS011;4268;52.506;13.462;2023-12-07T06:34:22;22.33;;;18.60;;
8462;SDS011;4268;52.506;13.462;2023-12-07T06:36:48;23.90;;;19.83;;
8462;SDS011;4268;52.506;13.462;2023-12-07T06:39:13;21.97;;;18.93;;
8462;SDS011;4268;52.506;13.462;2023-12-07T06:41:39;25.13;;;20.60;;
8462;SDS011;4268;52.506;13.462;2023-12-07T06:44:05;24.97;;;20.83;;
8462;SDS011;4268;52.506;13.462;2023-12-07T06:46:31;23.43;;;19.33;;
8462;SDS011;4268;52.506;13.462;2023-12-07T06:48:57;23.13;;;19.63;;
8462;SDS011;4268;52.506;13.462;2023-12-07T06:51:22;23.40;;;20.47;;
8462;SDS011;4268;52.506;13.462;2023-12-07T06:53:48;25.43;;;20.80;;
8462;SDS011;4268;52.506;13.462;2023-12-07T06:56:14;23.57;;;21.10;;
8462;SDS011;4268;52.506;13.462;2023-12-07T06:58:40;23.00;;;19.47;;
8462;SDS011;4268;52.506;13.462;2023-12-07T07:01:06;24.70;;;21.83;;
8462;SDS011;4268;52.506;13.462;2023-12-07T07:03:31;25.17;;;19.83;;
8462;SDS011;4268;52.506;13.462;2023-12-07T07:05:56;26.33;;;20.20;;
8462;SDS011;4268;52.506;13.462;2023-12-07T07:08:24;23.60;;;19.70;;
8462;SDS011;4268;52.506;13.462;2023-12-07T07:10:49;23.17;;;19.97;;
8462;SDS011;4268;52.506;13.462;2023-12-07T07:13:15;23.83;;;20.07;;
8462;SDS011;4268;52.506;13.462;2023-12-07T07:15:42;23.93;;;20.20;;
8462;SDS011;4268;52.506;13.462;2023-12-07T07:18:12;23.63;;;18.97;;
8462;SDS011;4268;52.506;13.462;2023-12-07T07:20:38;25.47;;;22.63;;
8462;SDS011;4268;52.506;13.462;2023-12-07T07:23:04;25.17;;;20.47;;
8462;SDS011;4268;52.506;13.462;2023-12-07T07:25:30;25.57;;;22.97;;
8462;SDS011;4268;52.506;13.462;2023-12-07T07:27:58;22.30;;;18.97;;
8462;SDS011;4268;52.506;13.462;2023-12-07T07:30:24;22.93;;;18.50;;
8462;SDS011;4268;52.506;13.462;2023-12-07T07:32:50;23.17;;;19.30;;
8462;SDS011;4268;52.506;13.462;2023-12-07T07:35:15;22.17;;;18.77;;
8462;SDS011;4268;52.506;13.462;2023-12-07T07:37:41;22.93;;;19.50;;
8462;SDS011;4268;52.506;13.462;2023-12-07T07:40:07;20.57;;;17.73;;
8462;SDS011;4268;52.506;13.462;2023-12-07T07:42:36;24.23;;;21.33;;
8462;SDS011;4268;52.506;13.462;2023-12-07T07:45:05;23.07;;;18.57;;
8462;SDS011;4268;52.506;13.462;2023-12-07T07:47:34;22.53;;;18.20;;
8462;SDS011;4268;52.506;13.462;2023-12-07T07:50:00;22.80;;;18.70;;
8462;SDS011;4268;52.506;13.462;2023-12-07T07:52:31;23.00;;;17.90;;
8462;SDS011;4268;52.506;13.462;2023-12-07T07:55:00;26.90;;;21.70;;
8462;SDS011;4268;52.506;13.462;2023-12-07T07:57:28;25.67;;;20.67;;
8462;SDS011;4268;52.506;13.462;2023-12-07T07:59:53;26.70;;;21.27;;
8462;SDS011;4268;52.506;13.462;2023-12-07T08:02:20;25.30;;;21.60;;
8462;SDS011;4268;52.506;13.462;2023-12-07T08:04:46;23.83;;;18.33;;
8462;SDS011;4268;52.506;13.462;2023-12-07T08:07:12;23.10;;;18.77;;
8462;SDS011;4268;52.506;13.462;2023-12-07T08:09:37;22.87;;;19.03;;
8462;SDS011;4268;52.506;13.462;2023-12-07T08:12:03;25.00;;;19.27;;
8462;SDS011;4268;52.506;13.462;2023-12-07T08:14:29;25.57;;;18.87;;
8462;SDS011;4268;52.506;13.462;2023-12-07T08:16:55;21.60;;;18.10;;
8462;SDS011;4268;52.506;13.462;2023-12-07T08:19:21;24.07;;;19.00;;
8462;SDS011;4268;52.506;13.462;2023-12-07T08:21:46;23.53;;;18.57;;
8462;SDS011;4268;52.506;13.462;2023-12-07T08:24:12;22.27;;;18.10;;
8462;SDS011;4268;52.506;13.462;2023-12-07T08:26:37;22.57;;;18.43;;
8462;SDS011;4268;52.506;13.462;2023-12-07T08:29:04;22.40;;;18.07;;
8462;SDS011;4268;52.506;13.462;2023-12-07T08:31:30;21.73;;;18.43;;
8462;SDS011;4268;52.506;13.462;2023-12-07T08:33:55;22.20;;;18.53;;
8462;SDS011;4268;52.506;13.462;2023-12-07T08:36:21;23.03;;;19.13;;
8462;SDS011;4268;52.506;13.462;2023-12-07T08:38:47;20.73;;;17.47;;
8462;SDS011;4268;52.506;13.462;2023-12-07T08:41:13;21.07;;;18.23;;
8462;SDS011;4268;52.506;13.462;2023-12-07T08:43:39;23.00;;;19.80;;
8462;SDS011;4268;52.506;13.462;2023-12-07T08:46:04;21.87;;;18.70;;
8462;SDS011;4268;52.506;13.462;2023-12-07T08:48:32;22.50;;;18.80;;
8462;SDS011;4268;52.506;13.462;2023-12-07T08:50:58;22.73;;;19.97;;
8462;SDS011;4268;52.506;13.462;2023-12-07T08:53:24;21.83;;;19.23;;
8462;SDS011;4268;52.506;13.462;2023-12-07T08:55:49;22.27;;;19.03;;
8462;SDS011;4268;52.506;13.462;2023-12-07T08:58:16;20.17;;;17.73;;
8462;SDS011;4268;52.506;13.462;2023-12-07T09:00:41;23.50;;;21.00;;
8462;SDS011;4268;52.506;13.462;2023-12-07T09:03:07;23.37;;;19.90;;
8462;SDS011;4268;52.506;13.462;2023-12-07T09:05:32;21.37;;;18.40;;
8462;SDS011;4268;52.506;13.462;2023-12-07T09:07:58;23.30;;;20.90;;
8462;SDS011;4268;52.506;13.462;2023-12-07T09:10:23;22.57;;;20.17;;
8462;SDS011;4268;52.506;13.462;2023-12-07T09:12:49;22.17;;;18.73;;
8462;SDS011;4268;52.506;13.462;2023-12-07T09:15:14;21.00;;;17.93;;
8462;SDS011;4268;52.506;13.462;2023-12-07T09:17:40;20.27;;;17.30;;
8462;SDS011;4268;52.506;13.462;2023-12-07T09:20:09;19.93;;;17.23;;
8462;SDS011;4268;52.506;13.462;2023-12-07T09:22:37;20.97;;;17.53;;
8462;SDS011;4268;52.506;13.462;2023-12-07T09:25:05;19.50;;;17.17;;
8462;SDS011;4268;52.506;13.462;2023-12-07T09:27:32;18.50;;;16.50;;
8462;SDS011;4268;52.506;13.462;2023-12-07T09:29:58;18.17;;;16.27;;
8462;SDS011;4268;52.506;13.462;2023-12-07T09:32:24;18.93;;;16.43;;
8462;SDS011;4268;52.506;13.462;2023-12-07T09:34:49;19.43;;;17.27;;
8462;SDS011;4268;52.506;13.462;2023-12-07T09:37:16;19.47;;;16.43;;
8462;SDS011;4268;52.506;13.462;2023-12-07T09:39:42;19.23;;;17.10;;
8462;SDS011;4268;52.506;13.462;2023-12-07T09:42:07;19.40;;;17.30;;
8462;SDS011;4268;52.506;13.462;2023-12-07T09:44:33;19.20;;;17.20;;
8462;SDS011;4268;52.506;13.462;2023-12-07T09:46:59;19.13;;;17.13;;
8462;SDS011;4268;52.506;13.462;2023-12-07T09:49:27;18.00;;;16.10;;
8462;SDS011;4268;52.506;13.462;2023-12-07T09:51:54;20.13;;;15.67;;
8462;SDS011;4268;52.506;13.462;2023-12-07T09:54:21;17.37;;;15.47;;
8462;SDS011;4268;52.506;13.462;2023-12-07T09:56:47;17.10;;;15.30;;
8462;SDS011;4268;52.506;13.462;2023-12-07T09:59:13;15.83;;;14.03;;
8462;SDS011;4268;52.506;13.462;2023-12-07T10:01:38;15.87;;;14.20;;
8462;SDS011;4268;52.506;13.462;2023-12-07T10:04:17;15.43;;;13.83;;
8462;SDS011;4268;52.506;13.462;2023-12-07T10:06:49;17.10;;;15.40;;
8462;SDS011;4268;52.506;13.462;2023-12-07T10:09:15;15.77;;;13.90;;
8462;SDS011;4268;52.506;13.462;2023-12-07T10:11:41;16.57;;;14.57;;
8462;SDS011;4268;52.506;13.462;2023-12-07T10:14:08;18.13;;;16.27;;
8462;SDS011;4268;52.506;13.462;2023-12-07T10:16:33;17.60;;;15.17;;
8462;SDS011;4268;52.506;13.462;2023-12-07T10:19:13;16.37;;;14.47;;
8462;SDS011;4268;52.506;13.462;2023-12-07T10:21:42;16.47;;;14.60;;
8462;SDS011;4268;52.506;13.462;2023-12-07T10:24:08;16.63;;;14.47;;
8462;SDS011;4268;52.506;13.462;2023-12-07T10:26:34;17.10;;;15.03;;
8462;SDS011;4268;52.506;13.462;2023-12-07T10:29:06;15.87;;;14.07;;
8462;SDS011;4268;52.506;13.462;2023-12-07T10:31:32;16.57;;;14.60;;
8462;SDS011;4268;52.506;13.462;2023-12-07T10:33:58;17.93;;;16.03;;
8462;SDS011;4268;52.506;13.462;2023-12-07T10:36:25;18.97;;;16.83;;
8462;SDS011;4268;52.506;13.462;2023-12-07T10:38:51;19.57;;;17.40;;
8462;SDS011;4268;52.506;13.462;2023-12-07T10:41:18;18.80;;;16.10;;
8462;SDS011;4268;52.506;13.462;2023-12-07T10:43:48;19.37;;;15.70;;
8462;SDS011;4268;52.506;13.462;2023-12-07T10:46:27;18.53;;;15.50;;
8462;SDS011;4268;52.506;13.462;2023-12-07T10:49:03;19.00;;;15.00;;
8462;SDS011;4268;52.506;13.462;2023-12-07T10:51:43;19.00;;;15.97;;
8462;SDS011;4268;52.506;13.462;2023-12-07T10:54:16;20.13;;;16.80;;
8462;SDS011;4268;52.506;13.462;2023-12-07T10:56:46;19.53;;;16.07;;
8462;SDS011;4268;52.506;13.462;2023-12-07T10:59:15;18.93;;;16.50;;
8462;SDS011;4268;52.506;13.462;2023-12-07T11:01:42;19.57;;;16.80;;
8462;SDS011;4268;52.506;13.462;2023-12-07T11:04:12;18.57;;;15.83;;
8462;SDS011;4268;52.506;13.462;2023-12-07T11:06:39;19.60;;;16.70;;
8462;SDS011;4268;52.506;13.462;2023-12-07T11:09:09;18.60;;;16.30;;
8462;SDS011;4268;52.506;13.462;2023-12-07T11:11:52;17.27;;;15.23;;
8462;SDS011;4268;52.506;13.462;2023-12-07T11:14:40;17.63;;;15.53;;
8462;SDS011;4268;52.506;13.462;2023-12-07T11:17:05;18.27;;;15.37;;
8462;SDS011;4268;52.506;13.462;2023-12-07T11:21:57;17.53;;;15.60;;
8462;SDS011;4268;52.506;13.462;2023-12-07T11:24:23;17.50;;;15.57;;
8462;SDS011;4268;52.506;13.462;2023-12-07T11:26:52;18.43;;;15.73;;
8462;SDS011;4268;52.506;13.462;2023-12-07T11:29:19;18.57;;;16.17;;
8462;SDS011;4268;52.506;13.462;2023-12-07T11:31:46;19.23;;;16.43;;
8462;SDS011;4268;52.506;13.462;2023-12-07T11:34:13;19.07;;;16.37;;
8462;SDS011;4268;52.506;13.462;2023-12-07T11:36:39;17.20;;;15.40;;
8462;SDS011;4268;52.506;13.462;2023-12-07T11:41:34;19.43;;;16.13;;
8462;SDS011;4268;52.506;13.462;2023-12-07T11:44:05;18.50;;;16.20;;
8462;SDS011;4268;52.506;13.462;2023-12-07T11:46:30;17.10;;;15.27;;
8462;SDS011;4268;52.506;13.462;2023-12-07T11:48:56;17.03;;;15.23;;
8462;SDS011;4268;52.506;13.462;2023-12-07T11:51:23;16.50;;;14.00;;
8462;SDS011;4268;52.506;13.462;2023-12-07T11:53:49;18.27;;;16.20;;
8462;SDS011;4268;52.506;13.462;2023-12-07T11:56:15;18.30;;;16.20;;
8462;SDS011;4268;52.506;13.462;2023-12-07T11:58:45;19.63;;;17.73;;
8462;SDS011;4268;52.506;13.462;2023-12-07T12:01:11;16.47;;;14.77;;
8462;SDS011;4268;52.506;13.462;2023-12-07T12:03:37;17.70;;;15.80;;
8462;SDS011;4268;52.506;13.462;2023-12-07T12:06:03;17.33;;;15.50;;
8462;SDS011;4268;52.506;13.462;2023-12-07T12:08:30;19.57;;;15.93;;
8462;SDS011;4268;52.506;13.462;2023-12-07T12:10:56;19.23;;;17.17;;
8462;SDS011;4268;52.506;13.462;2023-12-07T12:13:28;19.77;;;17.47;;
8462;SDS011;4268;52.506;13.462;2023-12-07T12:15:55;19.77;;;16.97;;
8462;SDS011;4268;52.506;13.462;2023-12-07T12:18:21;18.00;;;16.03;;
8462;SDS011;4268;52.506;13.462;2023-12-07T12:20:49;18.57;;;16.20;;
8462;SDS011;4268;52.506;13.462;2023-12-07T12:23:16;19.33;;;16.27;;
8462;SDS011;4268;52.506;13.462;2023-12-07T12:25:41;19.57;;;16.77;;
8462;SDS011;4268;52.506;13.462;2023-12-07T12:28:08;18.03;;;15.90;;
8462;SDS011;4268;52.506;13.462;2023-12-07T12:30:34;19.77;;;17.13;;
8462;SDS011;4268;52.506;13.462;2023-12-07T12:33:00;19.03;;;16.60;;
8462;SDS011;4268;52.506;13.462;2023-12-07T12:35:26;19.63;;;16.90;;
8462;SDS011;4268;52.506;13.462;2023-12-07T12:37:51;20.87;;;18.43;;
8462;SDS011;4268;52.506;13.462;2023-12-07T12:40:18;21.87;;;18.80;;
8462;SDS011;4268;52.506;13.462;2023-12-07T12:42:45;22.27;;;19.07;;
8462;SDS011;4268;52.506;13.462;2023-12-07T12:45:14;20.90;;;18.30;;
8462;SDS011;4268;52.506;13.462;2023-12-07T12:47:41;19.60;;;17.57;;
8462;SDS011;4268;52.506;13.462;2023-12-07T12:50:10;22.97;;;20.33;;
8462;SDS011;4268;52.506;13.462;2023-12-07T12:52:39;23.37;;;19.83;;
8462;SDS011;4268;52.506;13.462;2023-12-07T12:55:08;23.47;;;20.57;;
8462;SDS011;4268;52.506;13.462;2023-12-07T12:57:35;23.47;;;20.97;;
8462;SDS011;4268;52.506;13.462;2023-12-07T13:00:01;25.77;;;21.47;;
8462;SDS011;4268;52.506;13.462;2023-12-07T13:02:27;23.63;;;21.13;;
8462;SDS011;4268;52.506;13.462;2023-12-07T13:04:53;23.67;;;20.73;;
8462;SDS011;4268;52.506;13.462;2023-12-07T13:07:19;24.63;;;21.83;;
8462;SDS011;4268;52.506;13.462;2023-12-07T13:09:44;24.90;;;21.53;;
8462;SDS011;4268;52.506;13.462;2023-12-07T13:12:10;23.83;;;21.23;;
8462;SDS011;4268;52.506;13.462;2023-12-07T13:14:35;25.70;;;21.90;;
8462;SDS011;4268;52.506;13.462;2023-12-07T13:17:03;24.87;;;21.87;;
8462;SDS011;4268;52.506;13.462;2023-12-07T13:19:29;26.10;;;23.23;;
8462;SDS011;4268;52.506;13.462;2023-12-07T13:21:55;25.40;;;22.60;;
8462;SDS011;4268;52.506;13.462;2023-12-07T13:24:20;24.60;;;21.83;;
8462;SDS011;4268;52.506;13.462;2023-12-07T13:26:46;25.60;;;22.33;;
8462;SDS011;4268;52.506;13.462;2023-12-07T13:29:12;24.73;;;22.00;;
8462;SDS011;4268;52.506;13.462;2023-12-07T13:31:38;27.93;;;23.80;;
8462;SDS011;4268;52.506;13.462;2023-12-07T13:34:04;28.10;;;25.07;;
8462;SDS011;4268;52.506;13.462;2023-12-07T13:36:30;27.47;;;23.00;;
8462;SDS011;4268;52.506;13.462;2023-12-07T13:38:58;26.97;;;23.33;;
8462;SDS011;4268;52.506;13.462;2023-12-07T13:41:24;27.27;;;23.77;;
8462;SDS011;4268;52.506;13.462;2023-12-07T13:43:49;29.40;;;25.07;;
8462;SDS011;4268;52.506;13.462;2023-12-07T13:46:16;28.00;;;23.80;;
8462;SDS011;4268;52.506;13.462;2023-12-07T13:48:44;29.77;;;24.40;;
8462;SDS011;4268;52.506;13.462;2023-12-07T13:51:10;29.47;;;24.73;;
8462;SDS011;4268;52.506;13.462;2023-12-07T13:53:36;29.17;;;24.37;;
8462;SDS011;4268;52.506;13.462;2023-12-07T13:56:02;30.23;;;25.00;;
8462;SDS011;4268;52.506;13.462;2023-12-07T13:58:29;29.40;;;25.33;;
8462;SDS011;4268;52.506;13.462;2023-12-07T14:00:55;32.10;;;25.57;;
8462;SDS011;4268;52.506;13.462;2023-12-07T14:03:21;28.07;;;24.77;;
8462;SDS011;4268;52.506;13.462;2023-12-07T14:05:48;35.17;;;26.93;;
8462;SDS011;4268;52.506;13.462;2023-12-07T14:08:13;33.93;;;27.63;;
8462;SDS011;4268;52.506;13.462;2023-12-07T14:10:39;34.53;;;27.13;;
8462;SDS011;4268;52.506;13.462;2023-12-07T14:13:04;33.93;;;27.17;;
8462;SDS011;4268;52.506;13.462;2023-12-07T14:15:30;34.20;;;26.73;;
8462;SDS011;4268;52.506;13.462;2023-12-07T14:17:57;30.77;;;25.67;;
8462;SDS011;4268;52.506;13.462;2023-12-07T14:20:25;36.77;;;27.60;;
8462;SDS011;4268;52.506;13.462;2023-12-07T14:22:52;32.50;;;26.17;;
8462;SDS011;4268;52.506;13.462;2023-12-07T14:25:19;32.00;;;28.30;;
8462;SDS011;4268;52.506;13.462;2023-12-07T14:27:44;33.43;;;27.00;;
8462;SDS011;4268;52.506;13.462;2023-12-07T14:30:10;35.07;;;27.87;;
8462;SDS011;4268;52.506;13.462;2023-12-07T14:32:36;33.87;;;27.30;;
8462;SDS011;4268;52.506;13.462;2023-12-07T14:35:01;37.10;;;28.53;;
8462;SDS011;4268;52.506;13.462;2023-12-07T14:37:27;35.47;;;30.33;;